createdAt,value
2019-05-11T00:02:02.346Z,59.73
2019-05-11T00:04:35.026Z,54.94
2019-05-11T00:07:07.703Z,56.48
2019-05-11T00:09:55.693Z,58.90
2019-05-11T00:12:14.599Z,60.67
2019-05-11T00:14:47.279Z,63.99
2019-05-11T00:17:19.723Z,55.08
2019-05-11T00:19:52.431Z,55.02
2019-05-11T00:22:25.106Z,57.98
2019-05-11T00:24:57.799Z,60.44
2019-05-11T00:27:30.478Z,63.89
2019-05-11T00:30:03.154Z,56.73
2019-05-11T00:32:35.775Z,55.29
2019-05-11T00:35:09.636Z,57.52
2019-05-11T00:37:42.214Z,59.33
2019-05-11T00:40:15.269Z,61.79
2019-05-11T00:42:47.976Z,63.69
2019-05-11T00:45:20.714Z,56.06
2019-05-11T00:47:53.339Z,53.39
2019-05-11T00:50:38.563Z,55.67
2019-05-11T00:53:00.335Z,57.94
2019-05-11T00:55:33.111Z,59.90
2019-05-11T00:58:06.099Z,61.47
2019-05-11T01:00:38.786Z,62.57
2019-05-11T01:03:11.364Z,64.82
2019-05-11T01:05:44.368Z,55.99
2019-05-11T01:08:18.048Z,53.10
2019-05-11T01:10:50.721Z,55.53
2019-05-11T01:13:23.812Z,57.84
2019-05-11T01:15:57.620Z,59.33
2019-05-11T01:18:30.301Z,61.25
2019-05-11T01:21:04.419Z,64.02
2019-05-11T01:23:36.984Z,56.68
2019-05-11T01:26:09.671Z,53.19
2019-05-11T01:28:42.353Z,55.51
2019-05-11T01:31:15.036Z,57.95
2019-05-11T01:33:47.697Z,59.89
2019-05-11T01:36:20.735Z,62.83
2019-05-11T01:38:53.373Z,62.56
2019-05-11T01:41:26.040Z,54.56
2019-05-11T01:43:58.724Z,55.40
2019-05-11T01:46:32.737Z,57.97
2019-05-11T01:49:05.515Z,59.98
2019-05-11T01:51:38.195Z,62.50
2019-05-11T01:54:10.426Z,63.17
2019-05-11T01:56:43.047Z,55.00
2019-05-11T01:59:15.718Z,53.83
2019-05-11T02:01:48.350Z,56.42
2019-05-11T02:04:20.974Z,58.83
2019-05-11T02:06:53.651Z,60.83
2019-05-11T02:09:26.240Z,62.04
2019-05-11T02:11:58.905Z,63.90
2019-05-11T02:14:31.543Z,63.24
2019-05-11T02:17:04.162Z,54.95
2019-05-11T02:19:36.416Z,53.75
2019-05-11T02:22:09.020Z,56.37
2019-05-11T02:24:41.456Z,58.49
2019-05-11T02:27:14.065Z,60.56
2019-05-11T02:29:46.758Z,61.68
2019-05-11T02:32:19.474Z,65.13
2019-05-11T02:34:52.108Z,57.95
2019-05-11T02:37:24.364Z,54.35
2019-05-11T02:39:56.593Z,56.83
2019-05-11T02:42:30.651Z,58.58
2019-05-11T02:45:03.245Z,60.96
2019-05-11T02:47:35.918Z,61.81
2019-05-11T02:50:09.923Z,63.12
2019-05-11T02:52:44.052Z,65.59
2019-05-11T02:55:16.716Z,57.16
2019-05-11T02:57:49.399Z,52.86
2019-05-11T03:00:28.912Z,55.30
2019-05-11T03:03:01.616Z,57.60
2019-05-11T03:05:35.312Z,59.28
2019-05-11T03:08:08.224Z,60.65
2019-05-11T03:10:40.851Z,61.96
2019-05-11T03:13:13.590Z,64.74
2019-05-11T03:15:46.335Z,56.16
2019-05-11T03:18:18.698Z,52.30
2019-05-11T03:20:51.494Z,54.78
2019-05-11T03:23:23.747Z,57.56
2019-05-11T03:25:56.446Z,59.46
2019-05-11T03:28:29.120Z,61.82
2019-05-11T03:31:01.906Z,62.24
2019-05-11T03:33:35.921Z,65.20
2019-05-11T03:36:08.599Z,57.50
2019-05-11T03:38:41.284Z,54.78
2019-05-11T03:41:14.768Z,57.34
2019-05-11T03:43:47.451Z,60.50
2019-05-11T03:46:20.486Z,61.96
2019-05-11T03:48:53.112Z,64.73
2019-05-11T03:51:26.107Z,57.14
2019-05-11T03:53:58.779Z,54.06
2019-05-11T03:56:31.461Z,56.69
2019-05-11T03:59:04.155Z,60.15
2019-05-11T04:01:37.124Z,62.31
2019-05-11T04:04:09.794Z,62.35
2019-05-11T04:06:42.065Z,54.29
2019-05-11T04:09:15.161Z,55.40
2019-05-11T04:11:48.142Z,57.84
2019-05-11T04:14:20.819Z,60.96
2019-05-11T04:16:53.814Z,62.53
2019-05-11T04:19:26.491Z,62.67
2019-05-11T04:21:58.754Z,55.95
2019-05-11T04:24:31.432Z,57.29
2019-05-11T04:27:04.141Z,60.50
2019-05-11T04:29:36.800Z,62.15
2019-05-11T04:32:09.580Z,63.78
2019-05-11T04:34:42.462Z,54.81
2019-05-11T04:37:16.788Z,52.83
2019-05-11T04:39:50.372Z,55.79
2019-05-11T04:42:23.372Z,58.65
2019-05-11T04:44:56.345Z,60.55
2019-05-11T04:47:29.347Z,62.23
2019-05-11T04:50:02.342Z,63.33
2019-05-11T04:52:35.366Z,54.78
2019-05-11T04:55:08.395Z,52.11
2019-05-11T04:57:41.298Z,54.85
2019-05-11T05:00:14.800Z,57.31
2019-05-11T05:02:48.702Z,59.81
2019-05-11T05:05:21.365Z,61.54
2019-05-11T05:08:08.275Z,62.64
2019-05-11T05:10:28.986Z,53.69
2019-05-11T05:13:10.136Z,52.88
2019-05-11T05:15:36.941Z,55.42
2019-05-11T05:18:10.704Z,57.92
2019-05-11T05:20:44.067Z,60.16
2019-05-11T05:23:16.985Z,60.65
2019-05-11T05:25:49.677Z,61.94
2019-05-11T05:28:22.293Z,64.05
2019-05-11T05:30:54.543Z,55.02
2019-05-11T05:33:27.181Z,51.95
2019-05-11T05:35:59.862Z,54.04
2019-05-11T05:38:32.751Z,56.25
2019-05-11T05:41:05.041Z,58.92
2019-05-11T05:43:37.706Z,60.84
2019-05-11T05:46:10.380Z,61.46
2019-05-11T05:48:43.049Z,64.16
2019-05-11T05:51:15.753Z,55.59
2019-05-11T05:53:48.017Z,52.79
2019-05-11T05:56:20.754Z,55.78
2019-05-11T05:58:53.553Z,57.92
2019-05-11T06:01:26.241Z,59.90
2019-05-11T06:03:58.927Z,60.65
2019-05-11T06:06:31.915Z,60.82
2019-05-11T06:09:06.955Z,62.00
2019-05-11T06:11:39.639Z,63.92
2019-05-11T06:14:12.311Z,54.64
2019-05-11T06:16:44.990Z,53.01
2019-05-11T06:19:17.669Z,54.97
2019-05-11T06:21:50.330Z,56.98
2019-05-11T06:24:23.012Z,58.40
2019-05-11T06:26:55.702Z,59.51
2019-05-11T06:29:28.412Z,61.62
2019-05-11T06:32:02.615Z,63.97
2019-05-11T06:34:35.271Z,55.20
2019-05-11T06:37:07.954Z,51.87
2019-05-11T06:39:40.635Z,54.00
2019-05-11T06:42:13.321Z,55.76
2019-05-11T06:44:45.990Z,56.94
2019-05-11T06:47:18.664Z,57.91
2019-05-11T06:49:51.353Z,60.27
2019-05-11T06:52:25.053Z,60.33
2019-05-11T06:54:57.737Z,61.64
2019-05-11T06:57:30.410Z,63.51
2019-05-11T07:00:03.094Z,54.46
2019-05-11T07:02:35.319Z,52.77
2019-05-11T07:05:09.061Z,54.71
2019-05-11T07:07:47.485Z,57.93
2019-05-11T07:10:16.666Z,58.65
2019-05-11T07:12:49.242Z,59.42
2019-05-11T07:15:21.923Z,59.90
2019-05-11T07:17:54.612Z,61.90
2019-05-11T07:20:27.279Z,62.16
2019-05-11T07:22:59.957Z,62.32
2019-05-11T07:25:32.947Z,65.08
2019-05-11T07:28:05.625Z,53.87
2019-05-11T07:30:38.299Z,50.07
2019-05-11T07:33:13.144Z,51.74
2019-05-11T07:35:47.815Z,53.17
2019-05-11T07:38:20.302Z,54.15
2019-05-11T07:40:52.937Z,55.28
2019-05-11T07:43:25.993Z,55.85
2019-05-11T07:45:58.886Z,58.40
2019-05-11T07:48:31.562Z,57.71
2019-05-11T07:51:04.136Z,56.77
2019-05-11T07:53:38.101Z,56.86
2019-05-11T07:56:11.030Z,59.49
2019-05-11T07:58:43.710Z,59.61
2019-05-11T08:01:18.677Z,59.97
2019-05-11T08:03:50.869Z,59.30
2019-05-11T08:06:23.385Z,59.33
2019-05-11T08:08:56.073Z,60.74
2019-05-11T08:11:31.356Z,59.42
2019-05-11T08:14:03.069Z,59.64
2019-05-11T08:16:35.633Z,57.90
2019-05-11T08:19:10.637Z,57.67
2019-05-11T08:21:42.129Z,58.36
2019-05-11T08:24:14.387Z,55.21
2019-05-11T08:26:48.040Z,57.09
2019-05-11T08:29:20.982Z,58.32
2019-05-11T08:31:53.660Z,58.58
2019-05-11T08:34:28.417Z,56.20
2019-05-11T08:37:01.353Z,54.28
2019-05-11T08:39:34.638Z,55.56
2019-05-11T08:42:08.740Z,54.89
2019-05-11T08:44:42.852Z,54.99
2019-05-11T08:47:17.871Z,53.41
2019-05-11T08:49:53.811Z,51.55
2019-05-11T08:52:28.254Z,50.49
2019-05-11T08:55:01.290Z,49.99
2019-05-11T08:57:33.969Z,49.72
2019-05-11T09:00:08.551Z,50.57
2019-05-11T09:02:41.595Z,51.42
2019-05-11T09:05:19.642Z,49.19
2019-05-11T09:08:04.677Z,49.49
2019-05-11T09:10:42.733Z,48.22
2019-05-11T09:13:22.799Z,48.20
2019-05-11T09:16:07.908Z,48.89
2019-05-11T09:18:49.981Z,48.72
2019-05-11T09:21:24.658Z,48.03
2019-05-11T09:23:59.732Z,48.42
2019-05-11T09:26:34.265Z,47.86
2019-05-11T09:29:10.571Z,47.79
2019-05-11T09:31:51.191Z,48.20
2019-05-11T09:34:35.161Z,46.94
2019-05-11T09:37:23.789Z,48.40
2019-05-11T09:40:04.144Z,47.22
2019-05-11T09:42:47.313Z,46.76
2019-05-11T09:45:28.045Z,46.24
2019-05-11T09:48:11.698Z,47.42
2019-05-11T09:50:51.236Z,46.33
2019-05-11T09:53:29.363Z,45.71
2019-05-11T09:56:08.646Z,44.82
2019-05-11T09:58:48.257Z,44.93
2019-05-11T10:01:30.460Z,43.39
2019-05-11T10:04:13.679Z,43.95
2019-05-11T10:06:55.408Z,43.64
2019-05-11T10:09:39.055Z,44.03
2019-05-11T10:12:21.435Z,44.22
2019-05-11T10:15:01.536Z,43.57
2019-05-11T10:17:42.770Z,41.66
2019-05-11T10:20:28.470Z,42.33
2019-05-11T10:23:02.389Z,44.04
2019-05-11T10:25:47.933Z,42.51
2019-05-11T10:28:28.471Z,43.05
2019-05-11T10:31:12.913Z,42.41
2019-05-11T10:33:58.435Z,42.75
2019-05-11T10:36:38.320Z,41.76
2019-05-11T10:39:18.634Z,42.82
2019-05-11T10:42:00.621Z,41.14
2019-05-11T10:44:43.626Z,40.63
2019-05-11T10:47:19.850Z,41.78
2019-05-11T10:49:57.888Z,43.91
2019-05-11T10:52:31.352Z,39.53
2019-05-11T10:55:04.345Z,39.71
2019-05-11T10:57:38.619Z,39.83
2019-05-11T11:00:12.991Z,38.12
2019-05-11T11:02:47.679Z,36.12
2019-05-11T11:05:20.106Z,36.89
2019-05-11T11:07:52.774Z,38.35
2019-05-11T11:10:28.521Z,37.14
2019-05-11T11:13:02.008Z,36.17
2019-05-11T11:15:34.603Z,34.37
2019-05-11T11:18:08.505Z,34.54
2019-05-11T11:20:41.606Z,35.44
2019-05-11T11:23:14.810Z,34.91
2019-05-11T11:25:48.151Z,35.06
2019-05-11T11:28:22.737Z,33.84
2019-05-11T11:30:58.448Z,33.91
2019-05-11T11:33:31.652Z,33.72
2019-05-11T11:36:04.540Z,33.43
2019-05-11T11:38:37.692Z,32.57
2019-05-11T11:41:10.611Z,34.40
2019-05-11T11:43:43.306Z,31.54
2019-05-11T11:46:15.969Z,31.69
2019-05-11T11:48:49.116Z,34.04
2019-05-11T11:51:22.034Z,35.88
2019-05-11T11:53:54.721Z,33.39
2019-05-11T11:56:28.385Z,31.58
2019-05-11T11:59:01.353Z,32.82
2019-05-11T12:01:33.993Z,32.41
2019-05-11T12:04:08.250Z,31.88
2019-05-11T12:06:41.498Z,31.31
2019-05-11T12:09:14.169Z,32.89
2019-05-11T12:11:48.597Z,29.73
2019-05-11T12:14:21.063Z,29.78
2019-05-11T12:17:06.805Z,30.21
2019-05-11T12:19:29.705Z,29.81
2019-05-11T12:22:02.274Z,31.73
2019-05-11T12:24:34.954Z,30.84
2019-05-11T12:27:07.845Z,31.12
2019-05-11T12:29:40.535Z,32.43
2019-05-11T12:32:14.852Z,31.95
2019-05-11T12:34:48.217Z,33.15
2019-05-11T12:37:22.091Z,33.19
2019-05-11T12:39:54.945Z,33.07
2019-05-11T12:42:28.386Z,33.21
2019-05-11T12:45:01.220Z,33.25
2019-05-11T12:47:33.885Z,32.93
2019-05-11T12:50:11.619Z,32.52
2019-05-11T12:52:44.274Z,33.40
2019-05-11T12:55:18.023Z,32.61
2019-05-11T12:57:50.945Z,33.35
2019-05-11T13:00:28.162Z,34.32
2019-05-11T13:02:59.470Z,34.78
2019-05-11T13:05:32.156Z,33.87
2019-05-11T13:08:04.854Z,33.97
2019-05-11T13:10:37.685Z,33.41
2019-05-11T13:13:09.991Z,34.14
2019-05-11T13:15:42.588Z,34.34
2019-05-11T13:18:15.257Z,35.29
2019-05-11T13:20:48.368Z,34.15
2019-05-11T13:23:20.746Z,33.55
2019-05-11T13:25:53.414Z,33.80
2019-05-11T13:28:28.229Z,33.56
2019-05-11T13:30:59.938Z,33.26
2019-05-11T13:33:32.553Z,32.71
2019-05-11T13:36:05.229Z,33.38
2019-05-11T13:38:38.863Z,34.00
2019-05-11T13:41:11.921Z,32.95
2019-05-11T13:43:44.596Z,33.71
2019-05-11T13:46:17.978Z,33.58
2019-05-11T13:48:50.889Z,33.81
2019-05-11T13:51:23.563Z,34.32
2019-05-11T13:53:58.293Z,30.79
2019-05-11T13:56:32.326Z,32.62
2019-05-11T13:59:10.690Z,32.05
2019-05-11T14:01:42.651Z,30.89
2019-05-11T14:04:17.902Z,32.31
2019-05-11T14:06:49.938Z,31.90
2019-05-11T14:09:22.555Z,32.37
2019-05-11T14:11:57.973Z,32.74
2019-05-11T14:14:31.291Z,31.87
2019-05-11T14:17:03.984Z,32.66
2019-05-11T14:19:38.461Z,33.78
2019-05-11T14:22:11.890Z,32.96
2019-05-11T14:24:44.573Z,32.93
2019-05-11T14:27:17.926Z,33.61
2019-05-11T14:29:52.194Z,34.29
2019-05-11T14:32:28.459Z,34.42
2019-05-11T14:35:01.229Z,35.51
2019-05-11T14:37:33.507Z,33.72
2019-05-11T14:40:08.896Z,34.98
2019-05-11T14:42:42.242Z,35.45
2019-05-11T14:45:15.022Z,35.08
2019-05-11T14:47:47.849Z,36.30
2019-05-11T14:50:20.583Z,36.34
2019-05-11T14:52:53.253Z,34.46
2019-05-11T14:55:25.479Z,35.66
2019-05-11T14:57:58.209Z,37.49
2019-05-11T15:00:30.883Z,35.65
2019-05-11T15:03:04.391Z,37.15
2019-05-11T15:05:37.952Z,40.13
2019-05-11T15:08:11.393Z,40.11
2019-05-11T15:10:44.067Z,39.46
2019-05-11T15:13:18.599Z,41.17
2019-05-11T15:15:50.952Z,42.24
2019-05-11T15:18:35.171Z,44.33
2019-05-11T15:20:58.059Z,43.50
2019-05-11T15:23:31.049Z,42.64
2019-05-11T15:26:06.904Z,44.50
2019-05-11T15:28:38.153Z,44.63
2019-05-11T15:31:12.258Z,44.96
2019-05-11T15:33:44.927Z,45.93
2019-05-11T15:36:19.280Z,45.42
2019-05-11T15:38:51.969Z,45.67
2019-05-11T15:41:24.667Z,45.90
2019-05-11T15:43:57.941Z,46.06
2019-05-11T15:46:30.989Z,46.84
2019-05-11T15:49:05.331Z,47.51
2019-05-11T15:51:41.181Z,48.07
2019-05-11T15:54:18.313Z,48.58
2019-05-11T15:56:49.911Z,48.30
2019-05-11T15:59:24.229Z,49.11
2019-05-11T16:01:58.143Z,48.55
2019-05-11T16:04:30.588Z,47.95
2019-05-11T16:07:03.280Z,48.07
2019-05-11T16:09:37.905Z,49.13
2019-05-11T16:12:10.269Z,49.33
2019-05-11T16:14:43.053Z,49.46
2019-05-11T16:17:15.744Z,49.89
2019-05-11T16:19:49.064Z,50.16
2019-05-11T16:22:23.702Z,49.38
2019-05-11T16:24:58.065Z,50.59
2019-05-11T16:27:39.630Z,50.97
2019-05-11T16:30:28.582Z,49.93
2019-05-11T16:33:03.639Z,50.63
2019-05-11T16:35:38.287Z,49.99
2019-05-11T16:38:10.923Z,51.19
2019-05-11T16:40:43.806Z,51.49
2019-05-11T16:43:22.608Z,51.91
2019-05-11T16:45:55.389Z,52.90
2019-05-11T16:48:29.695Z,52.73
2019-05-11T16:55:13.348Z,52.41
2019-05-11T17:01:22.714Z,52.85
2019-05-11T17:04:07.357Z,53.34
2019-05-11T17:06:58.350Z,53.04
2019-05-11T17:10:13.385Z,52.90
2019-05-11T17:12:23.863Z,52.74
2019-05-11T17:15:08.805Z,53.28
2019-05-11T17:17:43.779Z,53.49
2019-05-11T17:20:21.101Z,53.34
2019-05-11T17:22:57.570Z,53.41
2019-05-11T17:25:31.721Z,53.43
2019-05-11T17:28:09.886Z,54.43
2019-05-11T17:30:48.102Z,54.86
2019-05-11T17:33:23.366Z,54.48
2019-05-11T17:35:58.822Z,55.23
2019-05-11T17:38:42.905Z,55.15
2019-05-11T17:41:23.884Z,55.10
2019-05-11T17:44:09.133Z,55.20
2019-05-11T17:47:02.392Z,56.17
2019-05-11T17:49:38.428Z,57.62
2019-05-11T17:52:28.275Z,57.49
2019-05-11T17:55:15.241Z,57.70
2019-05-11T17:57:58.070Z,58.61
2019-05-11T18:00:34.924Z,59.13
2019-05-11T18:03:15.463Z,59.34
2019-05-11T18:05:54.448Z,59.33
2019-05-11T18:08:33.631Z,59.64
2019-05-11T18:11:12.908Z,59.32
2019-05-11T18:14:08.538Z,59.65
2019-05-11T18:16:43.479Z,59.94
2019-05-11T18:19:19.119Z,59.96
2019-05-11T18:21:53.793Z,60.24
2019-05-11T18:24:28.538Z,60.54
2019-05-11T18:27:03.950Z,60.23
2019-05-11T18:29:38.024Z,60.36
2019-05-11T18:32:31.385Z,59.72
2019-05-11T18:35:09.356Z,59.41
2019-05-11T18:37:47.812Z,59.43
2019-05-11T18:40:23.909Z,58.98
2019-05-11T18:43:02.824Z,59.03
2019-05-11T18:45:48.759Z,58.72
2019-05-11T18:48:22.163Z,58.58
2019-05-11T18:50:58.945Z,58.67
2019-05-11T18:53:31.950Z,58.59
2019-05-11T18:56:08.790Z,58.98
2019-05-11T18:58:41.804Z,58.99
2019-05-11T19:01:14.806Z,58.84
2019-05-11T19:03:49.062Z,58.68
2019-05-11T19:06:22.004Z,59.58
2019-05-11T19:08:54.757Z,59.89
2019-05-11T19:11:28.970Z,60.61
2019-05-11T19:14:04.327Z,60.67
2019-05-11T19:16:40.502Z,61.48
2019-05-11T19:19:14.494Z,61.83
2019-05-11T19:21:48.323Z,63.94
2019-05-11T19:24:27.883Z,58.41
2019-05-11T19:27:01.530Z,53.01
2019-05-11T19:29:34.434Z,54.15
2019-05-11T19:32:11.132Z,55.38
2019-05-11T19:34:47.906Z,56.24
2019-05-11T19:37:31.614Z,56.45
2019-05-11T19:40:09.061Z,57.27
2019-05-11T19:42:53.734Z,57.63
2019-05-11T19:45:29.323Z,58.15
2019-05-11T19:48:04.332Z,57.87
2019-05-11T19:50:41.620Z,58.53
2019-05-11T19:55:48.439Z,59.31
2019-05-11T19:58:28.985Z,60.47
2019-05-11T20:01:13.683Z,61.41
2019-05-11T20:04:08.195Z,61.66
2019-05-11T20:06:34.928Z,63.87
2019-05-11T20:09:09.821Z,58.12
2019-05-11T20:11:42.504Z,54.17
2019-05-11T20:14:28.306Z,55.21
2019-05-11T20:17:00.945Z,56.99
2019-05-11T20:19:33.198Z,58.09
2019-05-11T20:22:05.885Z,59.81
2019-05-11T20:24:38.508Z,59.78
2019-05-11T20:27:11.367Z,60.55
2019-05-11T20:29:44.035Z,61.80
2019-05-11T20:32:18.644Z,62.21
2019-05-11T20:34:50.942Z,63.90
2019-05-11T20:37:23.843Z,53.95
2019-05-11T20:39:58.460Z,52.10
2019-05-11T20:42:32.270Z,53.92
2019-05-11T20:45:07.748Z,55.09
2019-05-11T20:47:40.373Z,56.34
2019-05-11T20:50:13.242Z,57.45
2019-05-11T20:52:48.041Z,57.96
2019-05-11T20:55:21.271Z,58.83
2019-05-11T20:57:53.965Z,59.68
2019-05-11T21:00:27.914Z,60.42
2019-05-11T21:03:00.732Z,60.42
2019-05-11T21:05:33.430Z,61.20
2019-05-11T21:08:08.315Z,61.68
2019-05-11T21:10:40.418Z,61.80
2019-05-11T21:13:13.107Z,62.41
2019-05-11T21:15:47.898Z,64.00
2019-05-11T21:18:20.209Z,54.61
2019-05-11T21:20:54.029Z,51.13
2019-05-11T21:23:28.829Z,52.09
2019-05-11T21:26:00.646Z,53.64
2019-05-11T21:28:33.359Z,55.85
2019-05-11T21:31:08.018Z,56.97
2019-05-11T21:33:42.791Z,57.82
2019-05-11T21:36:22.392Z,58.86
2019-05-11T21:38:58.764Z,59.73
2019-05-11T21:41:31.606Z,61.25
2019-05-11T21:44:04.301Z,62.01
2019-05-11T21:46:38.251Z,64.17
2019-05-11T21:49:10.989Z,53.64
2019-05-11T21:51:44.062Z,53.10
2019-05-11T21:54:17.163Z,55.11
2019-05-11T21:56:49.943Z,56.07
2019-05-11T21:59:22.624Z,57.17
2019-05-11T22:01:55.505Z,58.14
2019-05-11T22:04:28.628Z,58.20
2019-05-11T22:07:02.699Z,59.37
2019-05-11T22:09:35.490Z,60.25
2019-05-11T22:12:10.785Z,60.48
2019-05-11T22:14:42.994Z,61.06
2019-05-11T22:17:15.674Z,62.52
2019-05-11T22:19:48.421Z,62.78
2019-05-11T22:22:25.073Z,51.83
2019-05-11T22:24:55.303Z,52.42
2019-05-11T22:27:27.981Z,54.18
2019-05-11T22:30:00.610Z,55.69
2019-05-11T22:32:33.180Z,57.44
2019-05-11T22:35:09.995Z,57.59
2019-05-11T22:37:43.867Z,59.05
2019-05-11T22:40:16.653Z,60.15
2019-05-11T22:42:49.330Z,60.51
2019-05-11T22:45:21.993Z,61.68
2019-05-11T22:47:55.403Z,62.44
2019-05-11T22:50:29.129Z,64.15
2019-05-11T22:53:01.990Z,55.85
2019-05-11T22:55:35.177Z,52.16
2019-05-11T22:58:08.647Z,52.81
2019-05-11T23:00:44.740Z,55.14
2019-05-11T23:03:18.874Z,56.69
2019-05-11T23:05:52.038Z,58.63
2019-05-11T23:08:25.014Z,60.42
2019-05-11T23:10:57.809Z,60.72
2019-05-11T23:13:30.781Z,62.31
2019-05-11T23:16:03.368Z,63.00
2019-05-11T23:18:38.866Z,53.79
2019-05-11T23:21:10.783Z,51.94
2019-05-11T23:23:43.548Z,54.64
2019-05-11T23:26:17.851Z,56.43
2019-05-11T23:28:51.372Z,59.09
2019-05-11T23:31:24.351Z,60.46
2019-05-11T23:33:58.045Z,61.80
2019-05-11T23:36:30.731Z,62.19
2019-05-11T23:39:03.822Z,62.84
2019-05-11T23:41:38.012Z,53.29
2019-05-11T23:44:11.852Z,52.91
2019-05-11T23:46:44.533Z,55.26
2019-05-11T23:49:17.985Z,57.80
2019-05-11T23:51:52.037Z,59.72
2019-05-11T23:54:24.721Z,61.00
2019-05-11T23:56:58.358Z,62.72
2019-05-11T23:59:31.092Z,61.13
